Time;durP1;ratioP1;P1;durP2;ratioP2;P2;SDS_P1;SDS_P2;PMS_P1;PMS_P2;Temp;Humidity;BMP_temperature;BMP_pressure;BME280_temperature;BME280_humidity;BME280_pressure;Samples;Min_cycle;Max_cycle;Signal;HPM_P1;HPM_P2
2023/09/05 00:00:16;;;;;;;9.75;8.25;;;;;;;15.70;100.00;101871.69;5028640;28;20076;-47
2023/09/05 00:02:43;;;;;;;9.82;8.98;;;;;;;15.70;100.00;101866.38;5013507;28;20446;-51
2023/09/05 00:05:09;;;;;;;9.32;8.48;;;;;;;15.96;100.00;101915.00;5012522;28;20409;-49
2023/09/05 00:07:35;;;;;;;9.18;8.15;;;;;;;16.06;100.00;101934.94;5028737;28;20467;-47
2023/09/05 00:10:04;;;;;;;9.30;7.45;;;;;;;16.09;100.00;101932.19;5013976;28;20038;-48
2023/09/05 00:12:30;;;;;;;8.45;7.57;;;;;;;16.06;100.00;101929.63;4996357;28;20365;-53
2023/09/05 00:14:57;;;;;;;7.82;7.13;;;;;;;15.67;100.00;101857.69;5013893;28;20038;-49
2023/09/05 00:17:22;;;;;;;8.77;7.80;;;;;;;15.67;100.00;101855.88;5013166;28;20061;-52
2023/09/05 00:19:49;;;;;;;8.57;7.50;;;;;;;16.05;100.00;101920.81;5028926;28;20037;-52
2023/09/05 00:22:14;;;;;;;8.68;7.68;;;;;;;16.03;100.00;101914.69;5013669;28;20042;-51
2023/09/05 00:24:40;;;;;;;8.00;7.20;;;;;;;16.05;100.00;101914.66;5013459;28;20042;-48
2023/09/05 00:27:07;;;;;;;8.52;7.40;;;;;;;16.04;100.00;101915.56;5013898;28;20566;-49
2023/09/05 00:29:32;;;;;;;8.27;7.57;;;;;;;15.67;100.00;101847.91;5028586;28;20071;-50
2023/09/05 00:31:59;;;;;;;9.55;8.35;;;;;;;16.05;100.00;101926.13;5013476;28;20034;-50
2023/09/05 00:34:32;;;;;;;8.95;8.15;;;;;;;16.04;100.00;101921.75;5012732;28;20038;-49
2023/09/05 00:37:03;;;;;;;8.75;7.75;;;;;;;16.00;100.00;101912.16;5013665;28;20046;-48
2023/09/05 00:39:28;;;;;;;8.35;7.55;;;;;;;15.80;100.00;101876.66;5013224;28;20038;-48
2023/09/05 00:41:56;;;;;;;10.02;9.02;;;;;;;15.56;100.00;101838.63;5013448;28;20064;-53
2023/09/05 00:44:24;;;;;;;9.32;8.00;;;;;;;15.99;100.00;101914.88;5029790;28;20558;-55
2023/09/05 00:46:50;;;;;;;9.35;8.50;;;;;;;16.00;100.00;101909.50;5013064;28;20065;-50
2023/09/05 00:49:15;;;;;;;8.70;7.90;;;;;;;15.53;100.00;101836.06;5027406;28;20042;-50
2023/09/05 00:51:50;;;;;;;9.10;8.20;;;;;;;15.94;100.00;101904.41;5013341;28;20372;-50
2023/09/05 00:54:16;;;;;;;8.55;7.85;;;;;;;15.50;100.00;101838.88;4996600;28;20034;-50
2023/09/05 00:56:41;;;;;;;9.20;8.40;;;;;;;15.74;100.00;101889.25;5012968;28;20037;-53
2023/09/05 00:59:07;;;;;;;8.82;7.90;;;;;;;15.64;100.00;101877.22;5028230;28;20048;-50
2023/09/05 01:01:32;;;;;;;9.10;8.20;;;;;;;15.47;100.00;101854.91;5027846;28;20300;-51
2023/09/05 01:03:57;;;;;;;9.00;8.25;;;;;;;15.70;100.00;101900.88;5012673;28;20026;-49
2023/09/05 01:06:56;;;;;;;9.43;8.63;;;;;;;15.46;100.00;101863.75;5000688;28;20034;-52
2023/09/05 01:09:26;;;;;;;8.43;7.75;;;;;;;15.53;100.00;101878.53;5012873;28;20041;-53
2023/09/05 01:11:52;;;;;;;11.57;7.87;;;;;;;15.64;100.00;101908.22;5012760;28;20034;-47
2023/09/05 01:14:18;;;;;;;8.90;8.10;;;;;;;15.62;100.00;101886.16;4995288;28;20285;-49
2023/09/05 01:16:46;;;;;;;8.38;7.57;;;;;;;15.15;100.00;101802.94;5012779;28;20041;-49
2023/09/05 01:19:15;;;;;;;8.55;7.75;;;;;;;15.07;100.00;101797.94;5012814;28;20062;-49
2023/09/05 01:21:51;;;;;;;8.38;7.60;;;;;;;15.50;100.00;101860.94;4995103;28;20498;-53
2023/09/05 01:24:20;;;;;;;8.32;7.10;;;;;;;15.03;100.00;101780.38;4994531;28;20125;-48
2023/09/05 01:26:45;;;;;;;9.45;7.20;;;;;;;15.18;100.00;101800.19;5012793;28;20038;-48
2023/09/05 01:29:11;;;;;;;6.72;6.18;;;;;;;15.20;100.00;101801.91;5012711;28;20464;-53
2023/09/05 01:31:37;;;;;;;7.60;6.95;;;;;;;15.59;100.00;101857.94;5028002;28;20061;-52
2023/09/05 01:34:03;;;;;;;8.13;7.32;;;;;;;15.65;100.00;101862.16;5027895;28;20042;-55
2023/09/05 01:36:28;;;;;;;7.30;6.60;;;;;;;15.66;100.00;101869.22;5012260;28;20092;-48
2023/09/05 01:38:53;;;;;;;7.95;7.05;;;;;;;15.58;100.00;101845.63;5012348;28;20030;-49
2023/09/05 01:41:19;;;;;;;9.60;6.72;;;;;;;15.71;100.00;101854.84;5011415;28;20406;-52
2023/09/05 01:43:44;;;;;;;7.90;6.78;;;;;;;15.75;100.00;101850.28;5012501;28;20364;-55
2023/09/05 01:46:09;;;;;;;7.32;6.22;;;;;;;15.28;100.00;101763.59;5012382;28;20034;-50
2023/09/05 01:48:35;;;;;;;7.28;6.68;;;;;;;15.79;100.00;101856.34;5027510;28;20113;-47
2023/09/05 01:51:00;;;;;;;7.63;6.57;;;;;;;15.77;100.00;101845.78;5010590;28;20122;-53
2023/09/05 01:53:26;;;;;;;7.57;6.53;;;;;;;15.77;100.00;101843.13;5012249;28;20034;-54
2023/09/05 01:55:52;;;;;;;8.00;6.63;;;;;;;15.27;100.00;101760.06;5003755;28;20048;-50
2023/09/05 01:58:17;;;;;;;7.32;6.72;;;;;;;15.78;100.00;101839.56;5031740;28;20033;-50
2023/09/05 02:00:42;;;;;;;8.25;7.30;;;;;;;15.80;100.00;101845.66;5031996;28;20053;-52
2023/09/05 02:03:09;;;;;;;7.82;7.13;;;;;;;15.43;100.00;101789.56;5032042;28;20030;-50
2023/09/05 02:05:34;;;;;;;7.63;6.93;;;;;;;15.82;100.00;101858.91;5032209;28;20462;-46
2023/09/05 02:08:00;;;;;;;9.45;6.82;;;;;;;15.79;100.00;101857.19;5031855;28;20068;-49
2023/09/05 02:10:25;;;;;;;9.60;7.32;;;;;;;15.38;100.00;101791.53;5031818;28;20037;-49
2023/09/05 02:12:51;;;;;;;9.30;7.30;;;;;;;15.34;100.00;101777.50;5024565;28;20530;-53
2023/09/05 02:15:16;;;;;;;7.78;7.03;;;;;;;15.70;100.00;101845.13;5012357;28;20034;-49
2023/09/05 02:17:41;;;;;;;7.35;6.65;;;;;;;15.68;100.00;101849.66;5012029;28;20030;-49
2023/09/05 02:20:07;;;;;;;13.43;7.35;;;;;;;15.23;100.00;101770.88;5012056;28;20073;-52
2023/09/05 02:22:32;;;;;;;7.60;6.97;;;;;;;15.24;100.00;101781.41;5011979;28;20461;-52
2023/09/05 02:25:00;;;;;;;8.02;7.32;;;;;;;15.60;100.00;101835.81;5012072;28;20044;-52
2023/09/05 02:27:26;;;;;;;8.05;7.20;;;;;;;15.60;100.00;101838.47;5011720;28;20041;-50
2023/09/05 02:29:56;;;;;;;7.80;6.93;;;;;;;15.57;100.00;101838.56;5011193;28;20097;-50
2023/09/05 02:32:22;;;;;;;7.97;7.28;;;;;;;15.23;100.00;101782.34;5011945;28;20043;-51
2023/09/05 02:34:52;;;;;;;8.93;8.13;;;;;;;15.06;100.00;101755.56;5026729;28;20045;-48
2023/09/05 02:37:17;;;;;;;9.50;7.68;;;;;;;15.41;100.00;101825.91;5011509;28;20040;-48
2023/09/05 02:39:43;;;;;;;7.72;7.03;;;;;;;15.43;100.00;101827.56;5011591;28;20501;-46
2023/09/05 02:42:08;;;;;;;8.07;7.38;;;;;;;15.41;100.00;101825.91;5011976;28;20045;-48
2023/09/05 02:44:33;;;;;;;8.80;7.32;;;;;;;15.41;100.00;101817.94;5011886;28;20280;-52
2023/09/05 02:46:59;;;;;;;8.35;7.55;;;;;;;15.40;100.00;101825.03;4994062;28;20080;-48
2023/09/05 02:49:24;;;;;;;8.88;7.95;;;;;;;15.13;100.00;101775.63;5010858;28;20050;-47
2023/09/05 02:51:49;;;;;;;8.32;7.57;;;;;;;14.90;100.00;101744.66;5011631;28;20147;-54
2023/09/05 02:54:14;;;;;;;8.73;7.93;;;;;;;14.92;100.00;101758.72;5011165;28;20085;-52
2023/09/05 02:56:40;;;;;;;9.00;7.82;;;;;;;15.23;100.00;101816.81;5011692;28;20169;-47
2023/09/05 02:59:05;;;;;;;9.10;8.30;;;;;;;15.24;100.00;101831.81;5011706;28;20042;-50
2023/09/05 03:01:31;;;;;;;8.20;7.47;;;;;;;15.32;100.00;101836.84;5026538;28;20052;-50
2023/09/05 03:03:56;;;;;;;8.60;7.70;;;;;;;15.15;100.00;101808.25;5046174;28;20041;-49
2023/09/05 03:06:22;;;;;;;8.80;8.07;;;;;;;15.28;100.00;101829.91;5014469;28;20230;-47
2023/09/05 03:08:47;;;;;;;9.35;8.45;;;;;;;15.27;100.00;101831.69;5014733;28;20077;-47
2023/09/05 03:11:17;;;;;;;10.73;8.93;;;;;;;15.08;100.00;101798.81;5014970;28;20155;-54
2023/09/05 03:13:43;;;;;;;8.88;7.82;;;;;;;15.10;100.00;101803.13;5015028;28;20044;-47
2023/09/05 03:16:09;;;;;;;9.00;8.18;;;;;;;15.14;100.00;101817.16;5013797;28;20502;-47
2023/09/05 03:18:34;;;;;;;8.68;7.72;;;;;;;15.14;100.00;101820.69;5014996;28;20059;-50
2023/09/05 03:20:59;;;;;;;9.13;8.25;;;;;;;14.62;100.00;101739.44;5014776;28;20069;-47
2023/09/05 03:23:25;;;;;;;8.48;7.78;;;;;;;15.03;100.00;101817.50;5014189;28;20108;-48
2023/09/05 03:25:52;;;;;;;8.73;7.82;;;;;;;15.01;100.00;101815.84;5014909;28;20065;-49
2023/09/05 03:28:18;;;;;;;8.98;8.18;;;;;;;14.56;100.00;101752.06;5014949;28;20084;-53
2023/09/05 03:30:43;;;;;;;8.35;7.60;;;;;;;14.89;100.00;101805.66;5014802;28;20046;-47
2023/09/05 03:33:09;;;;;;;9.57;8.68;;;;;;;14.88;100.00;101796.00;5030389;28;20108;-50
2023/09/05 03:35:35;;;;;;;8.70;7.82;;;;;;;14.68;100.00;101777.28;5029820;28;20040;-49
2023/09/05 03:38:01;;;;;;;9.00;8.10;;;;;;;14.65;100.00;101772.94;5014700;28;20045;-51
2023/09/05 03:40:26;;;;;;;10.18;8.48;;;;;;;14.38;100.00;101726.19;5014235;28;20041;-50
2023/09/05 03:42:51;;;;;;;11.52;9.20;;;;;;;14.22;100.00;101703.75;5014705;28;20395;-51
2023/09/05 03:45:18;;;;;;;9.73;8.82;;;;;;;14.35;100.00;101721.00;5014562;28;20044;-48
2023/09/05 03:47:43;;;;;;;10.50;8.90;;;;;;;14.76;100.00;101791.13;5014596;28;20069;-53
2023/09/05 03:50:09;;;;;;;9.82;8.90;;;;;;;14.29;100.00;101714.09;5014510;28;20540;-49
2023/09/05 03:52:34;;;;;;;10.10;9.10;;;;;;;14.70;100.00;101786.91;5014232;28;20042;-50
2023/09/05 03:54:59;;;;;;;10.65;8.88;;;;;;;14.70;100.00;101792.19;5014540;28;20057;-48
2023/09/05 03:57:25;;;;;;;9.98;8.98;;;;;;;14.67;100.00;101796.72;5013566;28;20038;-48
2023/09/05 03:59:50;;;;;;;10.68;9.52;;;;;;;14.64;100.00;101798.56;5014077;28;20045;-48
2023/09/05 04:02:15;;;;;;;10.15;9.15;;;;;;;14.56;100.00;101805.88;5014083;28;20038;-49
2023/09/05 04:04:41;;;;;;;9.70;8.80;;;;;;;14.13;100.00;101727.91;4996585;28;20073;-49
2023/09/05 04:07:07;;;;;;;9.38;8.48;;;;;;;14.56;100.00;101800.59;5013979;28;20034;-48
2023/09/05 04:09:32;;;;;;;9.80;8.93;;;;;;;14.16;100.00;101730.41;5029355;28;20080;-48
2023/09/05 04:11:57;;;;;;;11.35;9.65;;;;;;;14.16;100.00;101743.66;5013834;28;20036;-53
2023/09/05 04:14:23;;;;;;;12.32;9.68;;;;;;;14.48;100.00;101805.28;5012935;28;20094;-51
2023/09/05 04:16:48;;;;;;;10.65;9.65;;;;;;;14.05;100.00;101734.31;5014070;28;20297;-46
2023/09/05 04:19:13;;;;;;;10.65;9.55;;;;;;;14.34;100.00;101783.69;5013237;28;20030;-47
2023/09/05 04:21:39;;;;;;;11.75;10.27;;;;;;;14.42;100.00;101794.03;5013656;28;20037;-54
2023/09/05 04:24:05;;;;;;;12.00;9.07;;;;;;;14.42;100.00;101791.38;5013900;28;20034;-48
2023/09/05 04:26:33;;;;;;;11.48;10.27;;;;;;;14.40;100.00;101796.72;5013849;28;20041;-47
2023/09/05 04:28:58;;;;;;;12.77;10.05;;;;;;;14.38;100.00;101795.94;5013404;28;20033;-48
2023/09/05 04:31:24;;;;;;;10.93;9.27;;;;;;;14.37;100.00;101799.47;5016146;28;20059;-50
2023/09/05 04:33:50;;;;;;;10.90;9.30;;;;;;;14.36;100.00;101799.56;5051403;28;20060;-49
2023/09/05 04:36:15;;;;;;;21.15;10.18;;;;;;;14.32;100.00;101797.88;5020828;28;20186;-49
2023/09/05 04:38:44;;;;;;;10.55;9.55;;;;;;;13.92;100.00;101735.59;5041815;28;20120;-53
2023/09/05 04:41:10;;;;;;;11.05;9.95;;;;;;;13.84;100.00;101728.81;5013576;28;20162;-50
2023/09/05 04:43:35;;;;;;;12.48;10.52;;;;;;;14.27;100.00;101797.16;5029648;28;20486;-49
2023/09/05 04:46:03;;;;;;;12.30;10.55;;;;;;;14.21;100.00;101792.94;5023557;28;20044;-48
2023/09/05 04:48:29;;;;;;;11.90;10.70;;;;;;;14.22;100.00;101793.78;5062571;28;20120;-49
2023/09/05 04:50:54;;;;;;;11.70;10.52;;;;;;;14.15;100.00;101787.84;5048977;28;20506;-50
2023/09/05 04:53:19;;;;;;;12.68;11.48;;;;;;;13.71;100.00;101707.19;5015467;28;20542;-48
2023/09/05 04:55:45;;;;;;;14.40;10.77;;;;;;;13.77;100.00;101719.34;5029738;28;20043;-49
2023/09/05 04:58:13;;;;;;;11.75;10.55;;;;;;;14.16;100.00;101799.25;5015183;28;20033;-55
2023/09/05 05:00:40;;;;;;;10.75;9.75;;;;;;;14.12;100.00;101790.56;5047594;28;20054;-48
2023/09/05 05:03:06;;;;;;;12.98;11.70;;;;;;;13.71;100.00;101714.25;5032873;28;20033;-50
2023/09/05 05:05:31;;;;;;;11.50;10.35;;;;;;;13.74;100.00;101720.31;5032128;28;20578;-49
2023/09/05 05:07:56;;;;;;;12.32;11.10;;;;;;;14.15;100.00;101802.84;5014954;28;20124;-49
2023/09/05 05:10:22;;;;;;;14.10;10.23;;;;;;;13.73;100.00;101729.16;5014477;28;20041;-53
2023/09/05 05:12:47;;;;;;;16.25;11.10;;;;;;;13.80;100.00;101737.78;5029216;28;20088;-48
2023/09/05 05:15:13;;;;;;;12.38;10.73;;;;;;;13.80;100.00;101736.00;5024563;28;20479;-56
2023/09/05 05:17:39;;;;;;;13.23;11.57;;;;;;;14.09;100.00;101790.66;5033610;28;20035;-48
2023/09/05 05:20:05;;;;;;;11.65;10.45;;;;;;;14.17;100.00;101801.00;5041707;28;20036;-51
2023/09/05 05:22:31;;;;;;;11.70;10.60;;;;;;;14.13;100.00;101786.16;5013635;28;20402;-53
2023/09/05 05:24:56;;;;;;;11.55;10.45;;;;;;;13.88;100.00;101746.34;5032125;28;20040;-47
2023/09/05 05:27:22;;;;;;;12.20;10.35;;;;;;;14.17;100.00;101793.94;5031413;28;20068;-52
2023/09/05 05:29:47;;;;;;;11.82;10.45;;;;;;;13.79;100.00;101726.34;5031252;28;20052;-50
2023/09/05 05:32:12;;;;;;;12.00;10.80;;;;;;;14.20;100.00;101792.97;5032112;28;20029;-48
2023/09/05 05:34:38;;;;;;;11.98;10.77;;;;;;;13.84;100.00;101729.69;5032442;28;20079;-49
2023/09/05 05:37:03;;;;;;;11.95;10.77;;;;;;;14.27;100.00;101794.50;5032576;28;20037;-47
2023/09/05 05:39:29;;;;;;;11.40;9.82;;;;;;;14.30;100.00;101797.06;5012085;28;20088;-49
2023/09/05 05:41:54;;;;;;;11.45;10.25;;;;;;;13.87;100.00;101719.00;5011650;28;20034;-50
2023/09/05 05:44:19;;;;;;;11.93;10.70;;;;;;;14.13;100.00;101757.88;5027546;28;20109;-50
2023/09/05 05:46:45;;;;;;;11.68;10.20;;;;;;;14.27;100.00;101782.16;5012049;28;20030;-47
2023/09/05 05:49:10;;;;;;;11.20;10.15;;;;;;;14.34;100.00;101774.88;5026995;28;20046;-49
2023/09/05 05:51:37;;;;;;;11.70;10.50;;;;;;;14.46;100.00;101804.47;5012449;28;20069;-50
2023/09/05 05:54:02;;;;;;;10.93;9.85;;;;;;;14.60;100.00;101799.59;5012274;28;20117;-46
2023/09/05 05:56:28;;;;;;;11.20;9.93;;;;;;;14.24;100.00;101721.34;5012103;28;20129;-48
2023/09/05 05:58:53;;;;;;;11.63;10.00;;;;;;;14.80;100.00;101801.53;5026703;28;20033;-50
2023/09/05 06:01:18;;;;;;;11.45;10.32;;;;;;;14.53;100.00;101745.09;5026952;28;20493;-51
2023/09/05 06:03:44;;;;;;;12.00;10.90;;;;;;;14.99;100.00;101800.00;5027200;28;20036;-50
2023/09/05 06:06:09;;;;;;;12.13;9.85;;;;;;;14.84;100.00;101768.72;4994699;28;20121;-50
2023/09/05 06:08:35;;;;;;;11.75;9.73;;;;;;;14.72;100.00;101733.81;5011301;28;20033;-50
2023/09/05 06:11:00;;;;;;;11.10;9.98;;;;;;;15.23;100.00;101810.66;5012173;28;20113;-48
2023/09/05 06:13:25;;;;;;;13.18;9.75;;;;;;;15.27;100.00;101812.25;5012011;28;20042;-50
2023/09/05 06:15:51;;;;;;;9.90;8.95;;;;;;;15.40;100.00;101801.16;5012018;28;20038;-52
2023/09/05 06:18:17;;;;;;;10.15;9.25;;;;;;;15.04;100.00;101730.88;4994234;28;20105;-51
2023/09/05 06:20:42;;;;;;;10.93;9.82;;;;;;;15.55;100.00;101800.63;5011765;28;20045;-47
2023/09/05 06:23:07;;;;;;;11.18;10.02;;;;;;;15.63;100.00;101808.28;5012157;28;20038;-45
2023/09/05 06:25:33;;;;;;;11.93;8.43;;;;;;;15.63;100.00;101789.69;5011971;28;20120;-50
2023/09/05 06:27:58;;;;;;;9.93;8.80;;;;;;;15.88;100.00;101814.38;4994352;28;20398;-47
2023/09/05 06:30:23;;;;;;;9.85;8.82;;;;;;;15.92;100.00;101801.84;5026746;28;20042;-48
2023/09/05 06:32:49;;;;;;;10.20;8.80;;;;;;;15.73;100.00;101751.28;5011718;28;20226;-47
2023/09/05 06:35:14;;;;;;;10.52;8.38;;;;;;;16.17;100.00;101797.31;5011643;28;20057;-47
2023/09/05 06:37:40;;;;;;;9.05;7.93;;;;;;;16.25;100.00;101774.81;5012221;28;20041;-47
2023/09/05 06:40:09;;;;;;;8.93;7.80;;;;;;;16.58;100.00;101792.97;5015929;28;20040;-49
2023/09/05 06:42:46;;;;;;;8.65;6.82;;;;;;;16.78;100.00;101798.31;5030688;28;20030;-49
2023/09/05 06:45:12;;;;;;;8.43;7.60;;;;;;;16.95;100.00;101811.75;5015504;28;20511;-50
2023/09/05 06:47:37;;;;;;;9.60;6.90;;;;;;;16.77;100.00;101749.59;5014427;28;20042;-51
2023/09/05 06:50:06;;;;;;;8.35;7.55;;;;;;;17.28;100.00;101812.91;5015889;28;20394;-51
2023/09/05 06:52:32;;;;;;;8.32;7.55;;;;;;;17.34;100.00;101803.78;5015385;28;20070;-47
2023/09/05 06:54:58;;;;;;;8.55;6.80;;;;;;;17.20;100.00;101763.63;4997637;28;20046;-49
2023/09/05 06:57:24;;;;;;;7.95;7.22;;;;;;;17.19;100.00;101757.44;5015549;28;20046;-52
2023/09/05 06:59:50;;;;;;;10.25;7.22;;;;;;;17.75;100.00;101836.53;5015297;28;20038;-51
2023/09/05 07:02:15;;;;;;;7.63;7.03;;;;;;;17.87;100.00;101841.28;5015245;28;20104;-51
2023/09/05 07:04:41;;;;;;;7.32;6.63;;;;;;;17.98;100.00;101844.31;5015534;28;20465;-48
2023/09/05 07:07:07;;;;;;;8.70;7.00;;;;;;;17.73;100.00;101777.16;5015616;28;20036;-50
2023/09/05 07:09:34;;;;;;;8.07;6.60;;;;;;;17.82;100.00;101768.75;5001043;28;20091;-48
2023/09/05 07:11:59;;;;;;;7.43;6.72;;;;;;;18.13;100.00;101800.06;5034942;28;20392;-53
2023/09/05 07:14:25;;;;;;;11.23;7.50;;;;;;;18.23;100.00;101807.56;5050351;28;20474;-52
2023/09/05 07:16:50;;;;;;;7.80;7.00;;;;;;;18.33;100.00;101798.16;5034879;28;20037;-55
2023/09/05 07:19:16;;;;;;;7.35;6.63;;;;;;;18.42;100.00;101791.50;5035085;28;20061;-51
2023/09/05 07:21:42;;;;;;;8.45;6.53;;;;;;;18.81;100.00;101837.56;5050608;28;20114;-53
2023/09/05 07:24:11;;;;;;;7.20;6.50;;;;;;;18.74;100.00;101801.47;5034814;28;20417;-56
2023/09/05 07:26:38;;;;;;;7.28;6.68;;;;;;;19.09;100.00;101842.34;5034765;28;20401;-50
2023/09/05 07:29:04;;;;;;;6.53;5.90;;;;;;;19.31;100.00;101842.94;5017277;28;20037;-54
2023/09/05 07:31:31;;;;;;;9.07;6.28;;;;;;;19.50;100.00;101841.06;5014854;28;20479;-50
2023/09/05 07:33:57;;;;;;;6.63;6.03;;;;;;;19.43;100.00;101788.06;5015196;28;20041;-50
2023/09/05 07:36:23;;;;;;;9.45;5.97;;;;;;;19.87;100.00;101842.59;5015111;28;20037;-52
2023/09/05 07:38:48;;;;;;;6.30;5.50;;;;;;;19.80;100.00;101786.91;5030196;28;20034;-52
2023/09/05 07:41:14;;;;;;;5.70;5.20;;;;;;;19.98;100.00;101768.03;5029970;28;20387;-52
2023/09/05 07:43:39;;;;;;;6.10;5.47;;;;;;;20.65;100.00;101855.97;5014090;28;20121;-48
2023/09/05 07:46:04;;;;;;;8.63;5.85;;;;;;;20.59;100.00;101804.63;5015278;28;20045;-54
2023/09/05 07:48:30;;;;;;;5.95;5.35;;;;;;;21.20;100.00;101864.28;5014412;28;20042;-50
2023/09/05 07:51:03;;;;;;;6.15;5.55;;;;;;;21.38;100.00;101830.16;5013677;28;20494;-56
2023/09/05 07:53:29;;;;;;;5.90;5.30;;;;;;;21.69;100.00;101803.19;5014907;28;20046;-49
2023/09/05 07:55:55;;;;;;;5.38;4.80;;;;;;;22.26;100.00;101792.38;5014412;28;20064;-52
2023/09/05 07:58:20;;;;;;;5.63;5.13;;;;;;;23.14;100.00;101842.75;5014804;28;20340;-54
2023/09/05 08:00:47;;;;;;;6.18;4.60;;;;;;;23.38;100.00;101808.81;4996106;28;20046;-50
2023/09/05 08:03:13;;;;;;;5.35;4.85;;;;;;;24.27;100.00;101860.66;5029311;28;20034;-52
2023/09/05 08:05:39;;;;;;;8.50;5.03;;;;;;;24.68;100.00;101803.72;5014398;28;20482;-49
2023/09/05 08:08:04;;;;;;;7.00;4.43;;;;;;;25.40;100.00;101865.41;5014333;28;20490;-48
2023/09/05 08:10:29;;;;;;;5.97;4.38;;;;;;;25.47;100.00;101817.28;5014125;28;20046;-46
2023/09/05 08:12:55;;;;;;;4.60;4.20;;;;;;;25.72;100.00;101827.84;5014105;28;20045;-47
2023/09/05 08:15:20;;;;;;;4.93;4.22;;;;;;;26.01;100.00;101877.59;5014117;28;20117;-45
2023/09/05 08:17:45;;;;;;;5.10;4.15;;;;;;;25.87;100.00;101826.63;5013257;28;20395;-48
2023/09/05 08:20:12;;;;;;;6.15;4.20;;;;;;;26.56;100.00;101881.25;5014085;28;20038;-50
2023/09/05 08:22:38;;;;;;;4.25;3.85;;;;;;;26.45;100.00;101819.16;5029222;28;20103;-55
2023/09/05 08:25:04;;;;;;;8.30;4.65;;;;;;;27.12;100.00;101884.56;5013980;28;20037;-53
2023/09/05 08:27:30;;;;;;;6.05;4.38;;;;;;;27.22;100.00;101875.56;5013790;28;20087;-52
2023/09/05 08:29:56;;;;;;;6.03;4.57;;;;;;;27.31;100.00;101892.84;5013940;28;20124;-51
2023/09/05 08:32:22;;;;;;;5.28;4.35;;;;;;;27.36;100.00;101847.31;5013347;28;20100;-52
2023/09/05 08:34:47;;;;;;;5.75;4.13;;;;;;;27.67;100.00;101842.84;5013821;28;20499;-48
2023/09/05 08:37:12;;;;;;;7.47;4.07;;;;;;;27.76;100.00;101831.16;5013729;28;20034;-48
2023/09/05 08:39:38;;;;;;;4.43;3.67;;;;;;;28.17;100.00;101866.25;5018818;28;20049;-52
2023/09/05 08:42:06;;;;;;;7.15;4.28;;;;;;;27.88;100.00;101786.78;5013011;28;20061;-51
2023/09/05 08:44:37;;;;;;;4.63;4.00;;;;;;;28.57;100.00;101887.88;5013361;28;20505;-50
2023/09/05 08:47:02;;;;;;;4.80;3.83;;;;;;;28.33;100.00;101861.16;5028020;28;20100;-52
2023/09/05 08:49:28;;;;;;;4.32;3.92;;;;;;;28.31;100.00;101859.59;5027753;28;20049;-50
2023/09/05 08:51:56;;;;;;;5.90;3.83;;;;;;;28.41;100.00;101869.44;5032661;28;20045;-53
2023/09/05 08:54:21;;;;;;;7.53;4.20;;;;;;;28.54;100.00;101906.25;5047980;28;20029;-49
2023/09/05 08:56:47;;;;;;;5.75;4.53;;;;;;;28.73;100.00;101914.41;5047822;28;20517;-48
2023/09/05 08:59:13;;;;;;;4.53;3.83;;;;;;;28.93;100.00;101914.28;5048192;28;20060;-47
2023/09/05 09:01:41;;;;;;;10.50;4.32;;;;;;;28.71;100.00;101852.25;5047530;28;20119;-48
2023/09/05 09:04:08;;;;;;;6.93;3.92;;;;;;;28.97;100.00;101864.22;5029898;28;20038;-51
2023/09/05 09:06:34;;;;;;;7.43;3.78;;;;;;;29.19;100.00;101868.47;5012899;28;20049;-51
2023/09/05 09:08:59;;;;;;;7.45;3.92;;;;;;;29.81;100.00;101918.66;5027818;28;20030;-47
2023/09/05 09:11:24;;;;;;;11.45;4.00;;;;;;;29.72;100.00;101938.50;5012969;28;20030;-50
2023/09/05 09:13:57;;;;;;;4.47;3.90;;;;;;;29.83;100.00;101873.22;5012876;28;20467;-48
2023/09/05 09:16:23;;;;;;;5.00;3.47;;;;;;;30.38;100.00;101929.31;5012742;28;20026;-49
2023/09/05 09:18:49;;;;;;;6.50;3.78;;;;;;;30.54;100.00;101926.75;5013005;28;20030;-51
2023/09/05 09:21:18;;;;;;;5.70;4.18;;;;;;;30.71;100.00;101935.94;5027258;28;20032;-50
2023/09/05 09:23:44;;;;;;;6.30;3.63;;;;;;;30.71;100.00;101935.09;5012468;28;20372;-48
2023/09/05 09:26:10;;;;;;;5.05;3.67;;;;;;;30.86;100.00;101939.84;5012487;28;20485;-49
2023/09/05 09:28:37;;;;;;;5.68;4.25;;;;;;;30.57;100.00;101874.81;5010052;28;20120;-49
2023/09/05 09:31:05;;;;;;;5.35;4.18;;;;;;;30.94;100.00;101922.78;5010344;28;20038;-49
2023/09/05 09:33:31;;;;;;;6.30;4.22;;;;;;;31.04;100.00;101890.91;5009900;28;20479;-49
2023/09/05 09:36:00;;;;;;;4.78;4.25;;;;;;;31.56;100.00;101927.22;4992181;28;20622;-48
2023/09/05 09:38:26;;;;;;;4.72;4.30;;;;;;;31.73;100.00;101901.81;5009744;28;20133;-50
2023/09/05 09:40:51;;;;;;;5.70;4.13;;;;;;;30.99;100.00;101893.25;5009230;28;20129;-51
2023/09/05 09:43:17;;;;;;;4.35;3.95;;;;;;;30.93;100.00;101873.00;5009913;28;20045;-49
2023/09/05 09:45:42;;;;;;;6.82;4.05;;;;;;;31.27;100.00;101902.16;4992739;28;20041;-51
2023/09/05 09:48:09;;;;;;;6.55;3.75;;;;;;;31.03;100.00;101832.09;4992213;28;20483;-49
2023/09/05 09:50:36;;;;;;;10.85;4.47;;;;;;;31.82;100.00;101909.03;5025212;28;20038;-48
2023/09/05 09:53:02;;;;;;;4.65;3.88;;;;;;;32.03;100.00;101903.19;5024742;28;20561;-48
2023/09/05 09:55:31;;;;;;;4.05;3.08;;;;;;;32.03;100.00;101852.31;4991922;28;20053;-47
2023/09/05 09:58:01;;;;;;;4.82;3.67;;;;;;;32.74;100.00;101904.50;5009105;28;20045;-46
2023/09/05 10:00:28;;;;;;;7.20;4.07;;;;;;;33.04;100.00;101900.25;5008051;28;20045;-51
2023/09/05 10:02:54;;;;;;;4.57;4.18;;;;;;;33.12;100.00;101885.78;4991817;28;20046;-49
2023/09/05 10:05:23;;;;;;;5.32;3.75;;;;;;;32.67;100.00;101834.44;5024808;28;20547;-49
2023/09/05 10:07:49;;;;;;;6.43;3.63;;;;;;;33.39;100.00;101916.28;5009796;28;20032;-46
2023/09/05 10:10:15;;;;;;;4.18;3.35;;;;;;;33.37;100.00;101868.38;5024407;28;20033;-50
2023/09/05 10:12:43;;;;;;;5.07;3.80;;;;;;;33.68;100.00;101898.53;5009179;28;20036;-49
2023/09/05 10:15:09;;;;;;;5.65;3.80;;;;;;;33.80;100.00;101903.44;5009966;28;20506;-47
2023/09/05 10:17:35;;;;;;;6.20;3.90;;;;;;;33.59;100.00;101842.25;4998841;28;20068;-48
2023/09/05 10:20:02;;;;;;;4.65;3.42;;;;;;;34.06;100.00;101888.69;5044564;28;20057;-51
2023/09/05 10:22:29;;;;;;;6.45;3.92;;;;;;;34.00;100.00;101892.97;5028171;28;20030;-47
2023/09/05 10:24:55;;;;;;;7.90;4.57;;;;;;;33.67;100.00;101834.88;4992135;28;20037;-53
2023/09/05 10:27:20;;;;;;;8.25;4.03;;;;;;;33.81;100.00;101847.81;4991576;28;20042;-47
2023/09/05 10:29:47;;;;;;;4.53;4.10;;;;;;;33.79;100.00;101824.44;4991829;28;20124;-49
2023/09/05 10:32:19;;;;;;;5.80;3.33;;;;;;;34.55;100.00;101886.56;5008119;28;20026;-48
2023/09/05 10:34:47;;;;;;;4.43;3.67;;;;;;;34.52;100.00;101884.19;5024574;28;20096;-51
2023/09/05 10:37:18;;;;;;;6.55;4.53;;;;;;;34.12;100.00;101866.16;5008725;28;20034;-48
2023/09/05 10:39:57;;;;;;;5.28;4.25;;;;;;;34.38;100.00;101836.63;4991665;28;20060;-48
2023/09/05 10:42:31;;;;;;;4.17;3.77;;;;;;;34.43;97.33;101897.91;4992252;28;20029;-47
2023/09/05 10:44:58;;;;;;;4.30;3.53;;;;;;;34.82;98.35;101875.97;5024175;28;20685;-49
2023/09/05 10:47:35;;;;;;;7.65;4.03;;;;;;;34.32;99.42;101827.25;5009546;28;20084;-50
2023/09/05 10:50:08;;;;;;;11.57;3.67;;;;;;;34.57;100.00;101871.69;4991733;28;20045;-50
2023/09/05 10:52:34;;;;;;;4.20;3.65;;;;;;;34.90;100.00;101877.81;5009364;28;20038;-51
2023/09/05 10:55:50;;;;;;;4.00;3.58;;;;;;;35.17;100.00;101874.53;5008637;28;20038;-48
2023/09/05 10:58:54;;;;;;;5.03;3.35;;;;;;;35.28;100.00;101874.06;5008086;28;20133;-48
2023/09/05 11:01:48;;;;;;;5.95;4.40;;;;;;;35.12;97.38;101876.94;4986303;28;20185;-51
2023/09/05 11:04:23;;;;;;;4.03;3.00;;;;;;;35.13;99.30;101875.06;4990297;28;20049;-50
2023/09/05 11:07:18;;;;;;;5.38;4.35;;;;;;;35.54;100.00;101870.91;5008273;28;20046;-47
2023/09/05 11:09:48;;;;;;;3.90;3.50;;;;;;;35.86;100.00;101872.44;5007880;28;20049;-45
2023/09/05 11:12:14;;;;;;;4.72;4.32;;;;;;;35.72;98.30;101881.50;5008920;28;20553;-48